Time;durP1;ratioP1;P1;durP2;ratioP2;P2;SDS_P1;SDS_P2;PMS_P1;PMS_P2;Temp;Humidity;BMP_temperature;BMP_pressure;BME280_temperature;BME280_humidity;BME280_pressure;Samples;Min_cycle;Max_cycle;Signal;HPM_P1;HPM_P2
2023/12/29 00:00:33;;;;;;;;;;;9.00;99.90;;;;;;5022097;28;19952;-81
2023/12/29 00:02:58;;;;;;;;;;;9.00;99.90;;;;;;5023888;28;19925;-80
2023/12/29 00:05:24;;;;;;;;;;;9.00;99.90;;;;;;5024151;28;19908;-81
2023/12/29 00:07:49;;;;;;;;;;;9.00;99.90;;;;;;5022589;28;19917;-80
2023/12/29 00:10:15;;;;;;;;;;;9.00;99.90;;;;;;5017218;28;19918;-80
2023/12/29 00:12:40;;;;;;;;;;;9.00;99.90;;;;;;5023134;28;19909;-81
2023/12/29 00:15:06;;;;;;;;;;;9.00;99.90;;;;;;5023506;28;19908;-79
2023/12/29 00:17:32;;;;;;;;;;;8.90;99.90;;;;;;5022515;28;19909;-80
2023/12/29 00:19:58;;;;;;;;;;;8.90;99.90;;;;;;5023701;28;19913;-79
2023/12/29 00:22:25;;;;;;;;;;;8.90;99.90;;;;;;5019943;28;19948;-81
2023/12/29 00:24:50;;;;;;;;;;;9.00;99.90;;;;;;5023578;28;19909;-80
2023/12/29 00:27:16;;;;;;;;;;;9.00;99.90;;;;;;5024111;28;19920;-79
2023/12/29 00:29:42;;;;;;;;;;;9.00;99.90;;;;;;5023163;28;19971;-80
2023/12/29 00:32:08;;;;;;;;;;;8.90;99.90;;;;;;5023990;28;19924;-81
2023/12/29 00:34:34;;;;;;;;;;;8.70;99.90;;;;;;5021341;28;19916;-80
2023/12/29 00:36:59;;;;;;;;;;;8.50;99.90;;;;;;5023333;28;19913;-80
2023/12/29 00:39:29;;;;;;;;;;;8.40;99.90;;;;;;5023149;28;20300;-80
2023/12/29 00:41:56;;;;;;;;;;;8.30;99.90;;;;;;5020666;28;19909;-80
2023/12/29 00:44:22;;;;;;;;;;;8.10;99.90;;;;;;5038437;28;20486;-79
2023/12/29 00:46:47;;;;;;;;;;;8.00;99.90;;;;;;5023379;28;19912;-79
2023/12/29 00:49:13;;;;;;;;;;;8.00;99.90;;;;;;5017999;28;19917;-81
2023/12/29 00:51:39;;;;;;;;;;;8.00;99.90;;;;;;5022417;28;19909;-80
2023/12/29 00:54:04;;;;;;;;;;;7.90;99.90;;;;;;5023241;28;19908;-79
2023/12/29 00:56:30;;;;;;;;;;;7.80;99.90;;;;;;5023395;28;20265;-81
2023/12/29 00:58:55;;;;;;;;;;;7.80;99.90;;;;;;5023401;28;20259;-80
2023/12/29 01:01:21;;;;;;;;;;;7.60;99.90;;;;;;5022737;28;19921;-79
2023/12/29 01:03:46;;;;;;;;;;;7.60;99.90;;;;;;5038293;28;20971;-80
2023/12/29 01:06:12;;;;;;;;;;;7.50;99.90;;;;;;5037889;28;19959;-80
2023/12/29 01:08:37;;;;;;;;;;;7.60;99.90;;;;;;5035773;28;19917;-81
2023/12/29 01:11:03;;;;;;;;;;;7.60;99.90;;;;;;5015329;28;19940;-80
2023/12/29 01:13:29;;;;;;;;;;;7.50;99.90;;;;;;5023135;28;19915;-80
2023/12/29 01:15:54;;;;;;;;;;;7.50;99.90;;;;;;5022419;28;19909;-81
2023/12/29 01:18:20;;;;;;;;;;;7.60;99.90;;;;;;5022688;28;20000;-80
2023/12/29 01:20:45;;;;;;;;;;;7.50;99.90;;;;;;5022539;28;19916;-80
2023/12/29 01:23:11;;;;;;;;;;;7.50;99.90;;;;;;5011400;28;19912;-80
2023/12/29 01:25:36;;;;;;;;;;;7.40;99.90;;;;;;5023293;28;19995;-80
2023/12/29 01:28:02;;;;;;;;;;;7.50;99.90;;;;;;5020810;28;19917;-79
2023/12/29 01:30:27;;;;;;;;;;;7.50;99.90;;;;;;5022128;28;19924;-81
2023/12/29 01:32:53;;;;;;;;;;;7.60;99.90;;;;;;5022074;28;20564;-80
2023/12/29 01:35:18;;;;;;;;;;;7.50;99.90;;;;;;5022599;28;19917;-79
2023/12/29 01:37:44;;;;;;;;;;;7.50;99.90;;;;;;5024369;28;19934;-82
2023/12/29 01:40:10;;;;;;;;;;;7.50;99.90;;;;;;5023926;28;19917;-79
2023/12/29 01:42:35;;;;;;;;;;;7.30;99.90;;;;;;5021281;28;20330;-80
2023/12/29 01:45:01;;;;;;;;;;;7.20;99.90;;;;;;5020693;28;20381;-80
2023/12/29 01:47:27;;;;;;;;;;;7.30;99.90;;;;;;5022550;28;19913;-80
2023/12/29 01:49:52;;;;;;;;;;;7.20;99.90;;;;;;5014682;28;20659;-79
2023/12/29 01:52:19;;;;;;;;;;;7.30;99.90;;;;;;5022993;28;19916;-80
2023/12/29 01:54:45;;;;;;;;;;;7.40;99.90;;;;;;5022467;28;19986;-79
2023/12/29 01:57:11;;;;;;;;;;;7.40;99.90;;;;;;5021089;28;19912;-80
2023/12/29 01:59:38;;;;;;;;;;;7.40;99.90;;;;;;5018752;28;19909;-79
2023/12/29 02:02:04;;;;;;;;;;;7.50;99.90;;;;;;5016914;28;20026;-80
2023/12/29 02:04:30;;;;;;;;;;;7.40;99.90;;;;;;5021819;28;20030;-81
2023/12/29 02:06:55;;;;;;;;;;;7.60;99.90;;;;;;5022252;28;20298;-79
2023/12/29 02:09:21;;;;;;;;;;;7.80;99.90;;;;;;5028640;28;19989;-80
2023/12/29 02:11:47;;;;;;;;;;;7.70;99.90;;;;;;5023561;28;19955;-80
2023/12/29 02:14:13;;;;;;;;;;;7.70;99.90;;;;;;5027691;28;19912;-81
2023/12/29 02:16:58;;;;;;;;;;;7.80;99.90;;;;;;5022319;28;19999;-82
2023/12/29 02:19:23;;;;;;;;;;;8.00;99.90;;;;;;5029987;28;19913;-80
2023/12/29 02:21:49;;;;;;;;;;;8.10;99.90;;;;;;5018262;28;19917;-79
2023/12/29 02:24:14;;;;;;;;;;;8.20;99.90;;;;;;5016542;28;19913;-81
2023/12/29 02:26:41;;;;;;;;;;;8.30;99.90;;;;;;5018562;28;19908;-80
2023/12/29 02:29:08;;;;;;;;;;;8.30;99.90;;;;;;5022132;28;19960;-80
2023/12/29 02:31:34;;;;;;;;;;;8.10;99.90;;;;;;5021730;28;19920;-81
2023/12/29 02:34:02;;;;;;;;;;;8.00;99.90;;;;;;5037568;28;19959;-81
2023/12/29 02:36:29;;;;;;;;;;;7.90;99.90;;;;;;5021433;28;19913;-81
2023/12/29 02:38:55;;;;;;;;;;;7.90;99.90;;;;;;5022053;28;20021;-80
2023/12/29 02:41:20;;;;;;;;;;;7.90;99.90;;;;;;5037160;28;20418;-81
2023/12/29 02:43:46;;;;;;;;;;;7.90;99.90;;;;;;5022549;28;19909;-79
2023/12/29 02:46:11;;;;;;;;;;;7.90;99.90;;;;;;5022292;28;19912;-79
2023/12/29 02:48:37;;;;;;;;;;;8.10;99.90;;;;;;5021735;28;20059;-79
2023/12/29 02:51:03;;;;;;;;;;;8.30;99.90;;;;;;5019725;28;20648;-81
2023/12/29 02:53:28;;;;;;;;;;;8.40;99.90;;;;;;5022420;28;19909;-80
2023/12/29 02:55:53;;;;;;;;;;;8.40;99.90;;;;;;5022125;28;19951;-81
2023/12/29 02:58:19;;;;;;;;;;;8.50;99.90;;;;;;5021910;28;19970;-81
2023/12/29 03:00:45;;;;;;;;;;;8.50;99.90;;;;;;5022679;28;20736;-80
2023/12/29 03:03:10;;;;;;;;;;;8.50;99.90;;;;;;5025441;28;20082;-82
2023/12/29 03:05:36;;;;;;;;;;;8.40;99.90;;;;;;5024949;28;19913;-80
2023/12/29 03:08:01;;;;;;;;;;;8.40;99.90;;;;;;5025169;28;19912;-81
2023/12/29 03:10:27;;;;;;;;;;;8.50;99.90;;;;;;5025561;28;19924;-79
2023/12/29 03:12:52;;;;;;;;;;;8.50;99.90;;;;;;5025116;28;19913;-80
2023/12/29 03:15:18;;;;;;;;;;;8.50;99.90;;;;;;5024822;28;19971;-81
2023/12/29 03:17:43;;;;;;;;;;;8.50;99.90;;;;;;5025030;28;19955;-80
2023/12/29 03:20:09;;;;;;;;;;;8.50;99.90;;;;;;5024057;28;20400;-79
2023/12/29 03:22:34;;;;;;;;;;;8.50;99.90;;;;;;5014420;28;20734;-80
2023/12/29 03:25:00;;;;;;;;;;;8.40;99.90;;;;;;5024517;28;19916;-82
2023/12/29 03:27:25;;;;;;;;;;;8.50;99.90;;;;;;5024364;28;19913;-79
2023/12/29 03:29:51;;;;;;;;;;;8.50;99.90;;;;;;5023993;28;19921;-79
2023/12/29 03:32:17;;;;;;;;;;;8.40;99.90;;;;;;5024647;28;19915;-80
2023/12/29 03:34:43;;;;;;;;;;;8.30;99.90;;;;;;5024190;28;20374;-80
2023/12/29 03:37:08;;;;;;;;;;;8.20;99.90;;;;;;5024299;28;20071;-80
2023/12/29 03:39:35;;;;;;;;;;;8.20;99.90;;;;;;5022616;28;19909;-80
2023/12/29 03:42:01;;;;;;;;;;;8.40;99.90;;;;;;5023661;28;19959;-81
2023/12/29 03:44:26;;;;;;;;;;;8.50;99.90;;;;;;5024257;28;20401;-82
2023/12/29 03:46:52;;;;;;;;;;;8.40;99.90;;;;;;5024299;28;19909;-80
2023/12/29 03:49:17;;;;;;;;;;;8.30;99.90;;;;;;5018263;28;20757;-81
2023/12/29 03:51:43;;;;;;;;;;;8.40;99.90;;;;;;5027286;28;20439;-80
2023/12/29 03:54:08;;;;;;;;;;;8.30;99.90;;;;;;5024190;28;19919;-80
2023/12/29 03:56:34;;;;;;;;;;;8.40;99.90;;;;;;5024317;28;19909;-81
2023/12/29 03:58:59;;;;;;;;;;;8.30;99.90;;;;;;5024633;28;20014;-80
2023/12/29 04:01:25;;;;;;;;;;;8.30;99.90;;;;;;5024151;28;20381;-79
2023/12/29 04:03:50;;;;;;;;;;;8.40;99.90;;;;;;5024282;28;19939;-79
2023/12/29 04:06:16;;;;;;;;;;;8.30;99.90;;;;;;5023786;28;19996;-80
2023/12/29 04:08:41;;;;;;;;;;;8.20;99.90;;;;;;5021860;28;19913;-79
2023/12/29 04:11:07;;;;;;;;;;;8.20;99.90;;;;;;5020889;28;20419;-80
2023/12/29 04:13:33;;;;;;;;;;;8.40;99.90;;;;;;5024401;28;19913;-80
2023/12/29 04:15:58;;;;;;;;;;;8.40;99.90;;;;;;5023806;28;20564;-81
2023/12/29 04:18:24;;;;;;;;;;;8.50;99.90;;;;;;5024497;28;19920;-80
2023/12/29 04:20:49;;;;;;;;;;;8.20;99.90;;;;;;5022432;28;19908;-81
2023/12/29 04:23:15;;;;;;;;;;;8.10;99.90;;;;;;5011828;28;20042;-80
2023/12/29 04:25:41;;;;;;;;;;;8.00;99.90;;;;;;5024283;28;19915;-80
2023/12/29 04:28:07;;;;;;;;;;;7.90;99.90;;;;;;5022580;28;20127;-80
2023/12/29 04:30:33;;;;;;;;;;;7.70;99.90;;;;;;5022212;28;20055;-81
2023/12/29 04:32:58;;;;;;;;;;;7.50;99.90;;;;;;5023664;28;20023;-80
2023/12/29 04:35:24;;;;;;;;;;;7.40;99.90;;;;;;5023608;28;20402;-81
2023/12/29 04:37:50;;;;;;;;;;;7.40;99.90;;;;;;5019399;28;20772;-80
2023/12/29 04:40:16;;;;;;;;;;;7.40;99.90;;;;;;5023379;28;19909;-80
2023/12/29 04:42:42;;;;;;;;;;;7.40;99.90;;;;;;5023933;28;19909;-80
2023/12/29 04:45:07;;;;;;;;;;;7.50;99.90;;;;;;5023605;28;19913;-79
2023/12/29 04:47:33;;;;;;;;;;;7.70;99.90;;;;;;5021619;28;19912;-79
2023/12/29 04:49:58;;;;;;;;;;;7.80;99.90;;;;;;5015641;28;19920;-80
2023/12/29 04:52:24;;;;;;;;;;;7.90;99.90;;;;;;5023574;28;19996;-80
2023/12/29 04:54:50;;;;;;;;;;;8.10;99.90;;;;;;5023254;28;19909;-79
2023/12/29 04:57:15;;;;;;;;;;;8.10;99.90;;;;;;5022807;28;19932;-80
2023/12/29 04:59:41;;;;;;;;;;;8.10;99.90;;;;;;5022818;28;20701;-80
2023/12/29 05:02:06;;;;;;;;;;;8.10;99.90;;;;;;5023147;28;19928;-81
2023/12/29 05:04:32;;;;;;;;;;;8.00;99.90;;;;;;5022843;28;19913;-80
2023/12/29 05:06:57;;;;;;;;;;;7.80;99.90;;;;;;5021772;28;20030;-80
2023/12/29 05:09:23;;;;;;;;;;;7.60;99.90;;;;;;5017414;28;19913;-80
2023/12/29 05:11:49;;;;;;;;;;;7.60;99.90;;;;;;5022905;28;19952;-79
2023/12/29 05:14:14;;;;;;;;;;;7.60;99.90;;;;;;5022576;28;20338;-80
2023/12/29 05:16:41;;;;;;;;;;;7.50;99.90;;;;;;5022569;28;20449;-80
2023/12/29 05:19:06;;;;;;;;;;;7.40;99.90;;;;;;5023125;28;19908;-80
2023/12/29 05:21:32;;;;;;;;;;;7.20;99.90;;;;;;5020474;28;19909;-80
2023/12/29 05:23:57;;;;;;;;;;;7.20;99.90;;;;;;5013192;28;20467;-81
2023/12/29 05:26:23;;;;;;;;;;;7.10;99.90;;;;;;5022353;28;19909;-80
2023/12/29 05:28:48;;;;;;;;;;;7.00;99.90;;;;;;5022640;28;19919;-80
2023/12/29 05:31:14;;;;;;;;;;;7.10;99.90;;;;;;5021940;28;20446;-80
2023/12/29 05:33:39;;;;;;;;;;;7.30;99.90;;;;;;5022832;28;19987;-81
2023/12/29 05:36:07;;;;;;;;;;;7.30;99.90;;;;;;5022699;28;20447;-82
2023/12/29 05:38:33;;;;;;;;;;;7.10;99.90;;;;;;5022238;28;20450;-80
2023/12/29 05:41:01;;;;;;;;;;;7.10;99.90;;;;;;5024945;28;20008;-80
2023/12/29 05:43:26;;;;;;;;;;;7.10;99.90;;;;;;5022361;28;20012;-79
2023/12/29 05:45:52;;;;;;;;;;;7.30;99.90;;;;;;5019910;28;20659;-79
2023/12/29 05:48:17;;;;;;;;;;;7.40;99.90;;;;;;5020600;28;20015;-79
2023/12/29 05:50:43;;;;;;;;;;;7.50;99.90;;;;;;5018672;28;20455;-81
2023/12/29 05:53:08;;;;;;;;;;;7.50;99.90;;;;;;5021750;28;19909;-80
2023/12/29 05:55:34;;;;;;;;;;;7.60;99.90;;;;;;5022824;28;19999;-81
2023/12/29 05:57:59;;;;;;;;;;;7.60;99.90;;;;;;5022353;28;19913;-80
2023/12/29 06:00:25;;;;;;;;;;;7.70;99.90;;;;;;5022016;28;19971;-80
2023/12/29 06:02:50;;;;;;;;;;;7.80;99.90;;;;;;5020556;28;19925;-81
2023/12/29 06:05:16;;;;;;;;;;;7.80;99.90;;;;;;5032274;28;19909;-79
2023/12/29 06:07:42;;;;;;;;;;;7.90;99.90;;;;;;5022393;28;20616;-79
2023/12/29 06:10:08;;;;;;;;;;;7.90;99.90;;;;;;5022026;28;19924;-80
2023/12/29 06:12:34;;;;;;;;;;;7.90;99.90;;;;;;5022378;28;19952;-82
2023/12/29 06:15:00;;;;;;;;;;;7.90;99.90;;;;;;5021791;28;20759;-81
2023/12/29 06:17:26;;;;;;;;;;;7.90;99.90;;;;;;5022416;28;19909;-80
2023/12/29 06:19:52;;;;;;;;;;;8.00;99.90;;;;;;5019992;28;20738;-80
2023/12/29 06:22:18;;;;;;;;;;;8.00;99.90;;;;;;5017744;28;19914;-80
2023/12/29 06:24:43;;;;;;;;;;;8.10;99.90;;;;;;5020304;28;19909;-80
2023/12/29 06:27:09;;;;;;;;;;;8.10;99.90;;;;;;5022099;28;19913;-80
2023/12/29 06:29:35;;;;;;;;;;;8.20;99.90;;;;;;5022312;28;19952;-80
2023/12/29 06:32:01;;;;;;;;;;;8.00;99.90;;;;;;5022258;28;20004;-80
2023/12/29 06:34:27;;;;;;;;;;;8.00;99.90;;;;;;5022316;28;19909;-80
2023/12/29 06:36:52;;;;;;;;;;;7.90;99.90;;;;;;5024052;28;19909;-80
2023/12/29 06:39:18;;;;;;;;;;;7.90;99.90;;;;;;5025762;28;19913;-80
2023/12/29 06:41:43;;;;;;;;;;;7.90;99.90;;;;;;5025557;28;19909;-80
2023/12/29 06:44:08;;;;;;;;;;;7.90;99.90;;;;;;5040544;28;19944;-80
2023/12/29 06:46:36;;;;;;;;;;;7.90;99.90;;;;;;5025012;28;20011;-80
2023/12/29 06:49:02;;;;;;;;;;;7.90;99.90;;;;;;5021779;28;19919;-80
2023/12/29 06:51:28;;;;;;;;;;;7.90;99.90;;;;;;5022824;28;19931;-80
2023/12/29 06:53:54;;;;;;;;;;;7.90;99.90;;;;;;5025584;28;19905;-80
2023/12/29 06:56:19;;;;;;;;;;;7.90;99.90;;;;;;5025428;28;19908;-81
2023/12/29 06:58:45;;;;;;;;;;;7.90;99.90;;;;;;5025393;28;19919;-81
2023/12/29 07:01:10;;;;;;;;;;;7.90;99.90;;;;;;5024960;28;19963;-81
2023/12/29 07:03:36;;;;;;;;;;;8.00;99.90;;;;;;5025287;28;19913;-80
2023/12/29 07:06:02;;;;;;;;;;;8.00;99.90;;;;;;5024947;28;19909;-79
2023/12/29 07:08:27;;;;;;;;;;;8.20;99.90;;;;;;5040206;28;19920;-80
2023/12/29 07:10:53;;;;;;;;;;;8.30;99.90;;;;;;5025327;28;19952;-80
2023/12/29 07:13:19;;;;;;;;;;;8.40;99.90;;;;;;5025158;28;20303;-81
2023/12/29 07:15:45;;;;;;;;;;;8.40;99.90;;;;;;5025109;28;19948;-81
2023/12/29 07:18:10;;;;;;;;;;;8.40;99.90;;;;;;5022762;28;20451;-81
2023/12/29 07:20:36;;;;;;;;;;;8.40;99.90;;;;;;5024838;28;20341;-81
2023/12/29 07:23:02;;;;;;;;;;;8.40;99.90;;;;;;5014554;28;20443;-80
2023/12/29 07:25:27;;;;;;;;;;;8.40;99.90;;;;;;5025550;28;19920;-80
2023/12/29 07:27:53;;;;;;;;;;;8.40;99.90;;;;;;5024978;28;20448;-81
2023/12/29 07:30:19;;;;;;;;;;;8.30;99.90;;;;;;5024586;28;20412;-81
2023/12/29 07:32:44;;;;;;;;;;;7.80;99.90;;;;;;5024631;28;20364;-80
2023/12/29 07:35:10;;;;;;;;;;;7.40;99.90;;;;;;5022291;28;20463;-80
2023/12/29 07:37:35;;;;;;;;;;;7.30;99.90;;;;;;5024406;28;20338;-81
2023/12/29 07:40:01;;;;;;;;;;;7.40;99.90;;;;;;5024128;28;19916;-80
2023/12/29 07:42:26;;;;;;;;;;;7.70;99.90;;;;;;5024731;28;19913;-80
2023/12/29 07:44:55;;;;;;;;;;;8.10;99.90;;;;;;5023824;28;20462;-79
2023/12/29 07:47:20;;;;;;;;;;;8.20;99.90;;;;;;5023542;28;19916;-81
2023/12/29 07:49:46;;;;;;;;;;;8.20;99.90;;;;;;5018833;28;19939;-80
2023/12/29 07:52:11;;;;;;;;;;;8.10;99.90;;;;;;5024276;28;19959;-80
2023/12/29 07:54:37;;;;;;;;;;;8.00;99.90;;;;;;5024283;28;19905;-79
2023/12/29 07:57:02;;;;;;;;;;;7.90;99.90;;;;;;5024669;28;19909;-80
2023/12/29 07:59:28;;;;;;;;;;;8.00;99.90;;;;;;5024211;28;19913;-80
2023/12/29 08:01:53;;;;;;;;;;;8.20;99.90;;;;;;5039060;28;19921;-79
2023/12/29 08:04:19;;;;;;;;;;;8.30;99.90;;;;;;5024285;28;19920;-80
2023/12/29 08:06:44;;;;;;;;;;;8.40;99.90;;;;;;5024065;28;19916;-80
2023/12/29 08:09:10;;;;;;;;;;;8.40;99.90;;;;;;5018410;28;19913;-80
2023/12/29 08:11:36;;;;;;;;;;;8.40;99.90;;;;;;5023571;28;19917;-80
2023/12/29 08:14:02;;;;;;;;;;;8.50;99.90;;;;;;5023899;28;19959;-80
2023/12/29 08:16:27;;;;;;;;;;;8.40;99.90;;;;;;5023406;28;20609;-80
2023/12/29 08:18:53;;;;;;;;;;;8.30;99.90;;;;;;5023503;28;19909;-80
2023/12/29 08:21:19;;;;;;;;;;;8.40;99.90;;;;;;5023462;28;20367;-80
2023/12/29 08:23:48;;;;;;;;;;;8.40;99.90;;;;;;5023406;28;19962;-80
2023/12/29 08:26:14;;;;;;;;;;;8.30;99.90;;;;;;5022910;28;20407;-80
2023/12/29 08:28:39;;;;;;;;;;;8.30;99.90;;;;;;5023680;28;19913;-81
2023/12/29 08:31:06;;;;;;;;;;;8.30;99.90;;;;;;5023288;28;19913;-79
2023/12/29 08:33:32;;;;;;;;;;;8.20;99.90;;;;;;5023233;28;19963;-79
2023/12/29 08:36:00;;;;;;;;;;;8.20;99.90;;;;;;5023146;28;19909;-79
2023/12/29 08:38:26;;;;;;;;;;;8.20;99.90;;;;;;5023134;28;19916;-80
2023/12/29 08:40:52;;;;;;;;;;;8.20;99.90;;;;;;5022023;28;20359;-80
2023/12/29 08:43:21;;;;;;;;;;;8.30;99.90;;;;;;5023415;28;20027;-80
2023/12/29 08:45:49;;;;;;;;;;;8.50;99.90;;;;;;5021369;28;20804;-80
2023/12/29 08:48:15;;;;;;;;;;;8.60;99.90;;;;;;5023204;28;20757;-80
2023/12/29 08:50:41;;;;;;;;;;;8.60;99.90;;;;;;5023375;28;19920;-80
2023/12/29 08:53:07;;;;;;;;;;;8.60;99.90;;;;;;5023334;28;19908;-79
2023/12/29 08:55:32;;;;;;;;;;;8.60;99.90;;;;;;5023302;28;19916;-81
2023/12/29 08:57:58;;;;;;;;;;;8.60;99.90;;;;;;5022898;28;19913;-80
2023/12/29 09:00:23;;;;;;;;;;;8.70;99.90;;;;;;5023177;28;19920;-80
2023/12/29 09:02:49;;;;;;;;;;;8.80;99.90;;;;;;5021586;28;19932;-80
2023/12/29 09:05:14;;;;;;;;;;;8.90;99.90;;;;;;5018817;28;19910;-80
2023/12/29 09:07:40;;;;;;;;;;;9.00;99.90;;;;;;5022739;28;19975;-80
2023/12/29 09:10:10;;;;;;;;;;;9.00;99.90;;;;;;5037794;28;20007;-81
2023/12/29 09:12:36;;;;;;;;;;;9.00;99.90;;;;;;5022787;28;19951;-80
2023/12/29 09:15:02;;;;;;;;;;;9.10;99.90;;;;;;5022478;28;19995;-80
2023/12/29 09:17:28;;;;;;;;;;;9.20;99.90;;;;;;5022817;28;20330;-80
2023/12/29 09:19:54;;;;;;;;;;;9.30;99.90;;;;;;5022462;28;19909;-80
2023/12/29 09:22:20;;;;;;;;;;;9.30;99.90;;;;;;5019291;28;19987;-80
2023/12/29 09:24:46;;;;;;;;;;;9.40;99.90;;;;;;5022414;28;19909;-81
2023/12/29 09:27:11;;;;;;;;;;;9.40;99.90;;;;;;5022379;28;19909;-80
2023/12/29 09:29:37;;;;;;;;;;;9.50;99.90;;;;;;5021339;28;19913;-80
2023/12/29 09:32:03;;;;;;;;;;;9.50;99.90;;;;;;5022632;28;19909;-81
2023/12/29 09:34:28;;;;;;;;;;;9.50;99.90;;;;;;5037108;28;20004;-80
2023/12/29 09:36:54;;;;;;;;;;;9.50;99.90;;;;;;5022606;28;19908;-80
2023/12/29 09:39:19;;;;;;;;;;;9.60;99.90;;;;;;5023711;28;19976;-81
2023/12/29 09:41:51;;;;;;;;;;;9.60;99.90;;;;;;5024091;28;19978;-79
2023/12/29 09:44:18;;;;;;;;;;;9.50;99.90;;;;;;5026479;28;19916;-81
2023/12/29 09:46:46;;;;;;;;;;;9.50;99.90;;;;;;5021905;28;19916;-80
2023/12/29 09:49:13;;;;;;;;;;;9.50;99.90;;;;;;5019420;28;19916;-81
2023/12/29 09:51:39;;;;;;;;;;;9.50;99.90;;;;;;5022394;28;19945;-80
2023/12/29 09:54:05;;;;;;;;;;;9.40;99.90;;;;;;5022658;28;20023;-80
2023/12/29 09:56:31;;;;;;;;;;;9.40;99.90;;;;;;5022394;28;19909;-80
2023/12/29 09:58:57;;;;;;;;;;;9.50;99.90;;;;;;5022335;28;19916;-81
2023/12/29 10:01:23;;;;;;;;;;;9.60;99.90;;;;;;5021721;28;19921;-80
2023/12/29 10:03:49;;;;;;;;;;;9.60;99.90;;;;;;5022068;28;20011;-81
2023/12/29 10:06:18;;;;;;;;;;;9.60;99.90;;;;;;5021974;28;20498;-80
2023/12/29 10:08:45;;;;;;;;;;;9.60;99.90;;;;;;5022125;28;19913;-80
2023/12/29 10:11:11;;;;;;;;;;;9.70;99.90;;;;;;5025937;28;19968;-81
2023/12/29 10:13:38;;;;;;;;;;;9.70;99.90;;;;;;5026373;28;20299;-80
2023/12/29 10:16:08;;;;;;;;;;;9.80;99.90;;;;;;5025717;28;19909;-80
2023/12/29 10:18:34;;;;;;;;;;;9.80;99.90;;;;;;5031828;28;20027;-80
2023/12/29 10:21:02;;;;;;;;;;;9.80;99.90;;;;;;5025873;28;19909;-80
2023/12/29 10:23:49;;;;;;;;;;;10.00;99.90;;;;;;5016011;28;19908;-80
2023/12/29 10:26:15;;;;;;;;;;;10.00;99.90;;;;;;5024602;28;19940;-80
2023/12/29 10:28:40;;;;;;;;;;;10.20;99.90;;;;;;5025904;28;20390;-82
2023/12/29 10:31:06;;;;;;;;;;;10.20;99.90;;;;;;5025516;28;20011;-80
2023/12/29 10:33:32;;;;;;;;;;;10.20;99.90;;;;;;5025508;28;19913;-80
2023/12/29 10:36:06;;;;;;;;;;;10.20;99.90;;;;;;5025702;28;19931;-80
2023/12/29 10:38:32;;;;;;;;;;;10.10;99.90;;;;;;5026249;28;20476;-79
2023/12/29 10:41:10;;;;;;;;;;;10.20;99.90;;;;;;5025247;28;19913;-80
2023/12/29 10:43:35;;;;;;;;;;;10.10;99.90;;;;;;5024103;28;20630;-80
2023/12/29 10:46:06;;;;;;;;;;;10.10;99.90;;;;;;5028120;28;19916;-80
2023/12/29 10:48:31;;;;;;;;;;;10.10;99.90;;;;;;5026657;28;19975;-80
2023/12/29 10:50:57;;;;;;;;;;;10.10;99.90;;;;;;5016332;28;19949;-81
2023/12/29 10:53:23;;;;;;;;;;;10.00;99.90;;;;;;5025633;28;19909;-79
2023/12/29 10:55:48;;;;;;;;;;;10.00;99.90;;;;;;5025011;28;19909;-80
2023/12/29 10:58:15;;;;;;;;;;;10.00;99.90;;;;;;5025568;28;19959;-80
2023/12/29 11:00:41;;;;;;;;;;;10.00;99.90;;;;;;5024960;28;19959;-80
2023/12/29 11:03:07;;;;;;;;;;;10.10;99.90;;;;;;5025651;28;19948;-79
2023/12/29 11:05:33;;;;;;;;;;;10.20;99.90;;;;;;5024795;28;20364;-80
2023/12/29 11:07:59;;;;;;;;;;;10.20;99.90;;;;;;5025136;28;19917;-80
2023/12/29 11:10:25;;;;;;;;;;;10.30;99.90;;;;;;5024879;28;19924;-81
2023/12/29 11:12:51;;;;;;;;;;;10.40;99.90;;;;;;5024980;28;19928;-80
2023/12/29 11:15:17;;;;;;;;;;;10.50;99.90;;;;;;5025327;28;19909;-80
2023/12/29 11:17:49;;;;;;;;;;;10.50;99.90;;;;;;5024810;28;19955;-82
2023/12/29 11:20:16;;;;;;;;;;;10.50;99.90;;;;;;5024204;28;20403;-80
2023/12/29 11:22:42;;;;;;;;;;;10.60;99.90;;;;;;5013910;28;19915;-80
2023/12/29 11:25:08;;;;;;;;;;;10.80;99.90;;;;;;5022530;28;19908;-80
2023/12/29 11:27:34;;;;;;;;;;;10.80;99.90;;;;;;5024707;28;19982;-80
2023/12/29 11:30:00;;;;;;;;;;;10.90;99.90;;;;;;5039407;28;19920;-80
2023/12/29 11:32:44;;;;;;;;;;;11.00;99.90;;;;;;5024802;28;19909;-81
2023/12/29 11:35:12;;;;;;;;;;;11.20;99.90;;;;;;5024379;28;19952;-80
2023/12/29 11:37:47;;;;;;;;;;;11.30;99.90;;;;;;5024510;28;19909;-80
2023/12/29 11:40:20;;;;;;;;;;;11.30;99.90;;;;;;5024766;28;19916;-81
2023/12/29 11:42:48;;;;;;;;;;;11.30;99.90;;;;;;5027955;28;19916;-80
2023/12/29 11:45:26;;;;;;;;;;;11.20;99.90;;;;;;5022214;28;20000;-80
2023/12/29 11:47:53;;;;;;;;;;;11.20;99.90;;;;;;5024794;28;20525;-81
2023/12/29 11:50:36;;;;;;;;;;;11.10;99.90;;;;;;5018224;28;20406;-81
2023/12/29 11:53:02;;;;;;;;;;;11.10;99.90;;;;;;5024330;28;19944;-80
2023/12/29 11:55:28;;;;;;;;;;;11.10;99.90;;;;;;5024066;28;19944;-80
2023/12/29 11:57:54;;;;;;;;;;;11.20;99.90;;;;;;5022634;28;19957;-80
2023/12/29 12:00:19;;;;;;;;;;;11.30;99.90;;;;;;5023702;28;20490;-81
2023/12/29 12:02:45;;;;;;;;;;;11.50;99.90;;;;;;5024117;28;19936;-81
2023/12/29 12:05:11;;;;;;;;;;;11.50;99.90;;;;;;5023684;28;20459;-80
2023/12/29 12:07:39;;;;;;;;;;;11.60;99.90;;;;;;5023981;28;19913;-79
2023/12/29 12:10:23;;;;;;;;;;;11.60;99.90;;;;;;5023763;28;19920;-80
2023/12/29 12:12:51;;;;;;;;;;;11.50;99.80;;;;;;5024010;28;19974;-80
2023/12/29 12:15:32;;;;;;;;;;;11.40;99.90;;;;;;5023750;28;19909;-79
2023/12/29 12:18:04;;;;;;;;;;;11.50;99.90;;;;;;5023839;28;20702;-80
2023/12/29 12:20:29;;;;;;;;;;;11.40;99.90;;;;;;5015401;28;20694;-81
2023/12/29 12:22:55;;;;;;;;;;;11.50;99.90;;;;;;5013317;28;19916;-80
2023/12/29 12:25:20;;;;;;;;;;;11.80;99.90;;;;;;5023697;28;19909;-81
2023/12/29 12:27:46;;;;;;;;;;;11.60;99.70;;;;;;5023987;28;19920;-80
2023/12/29 12:30:18;;;;;;;;;;;11.40;99.80;;;;;;5023096;28;19913;-81
2023/12/29 12:32:43;;;;;;;;;;;11.20;99.90;;;;;;5022793;28;19917;-80
2023/12/29 12:35:16;;;;;;;;;;;11.00;99.90;;;;;;5023030;28;19909;-80
2023/12/29 12:37:41;;;;;;;;;;;11.00;99.90;;;;;;5023320;28;19916;-80
2023/12/29 12:40:08;;;;;;;;;;;11.20;99.90;;;;;;5023151;28;19913;-80
2023/12/29 12:42:38;;;;;;;;;;;11.50;99.90;;;;;;5023582;28;19931;-80
2023/12/29 12:45:05;;;;;;;;;;;11.60;99.90;;;;;;5023318;28;19940;-80
2023/12/29 12:47:35;;;;;;;;;;;11.60;99.90;;;;;;5023717;28;19913;-82
2023/12/29 12:50:01;;;;;;;;;;;11.50;99.90;;;;;;5014411;28;19967;-80
2023/12/29 12:52:30;;;;;;;;;;;11.30;99.90;;;;;;5023585;28;19932;-80
2023/12/29 12:54:55;;;;;;;;;;;11.20;99.90;;;;;;5023439;28;19954;-81
2023/12/29 12:57:21;;;;;;;;;;;11.10;99.90;;;;;;5023433;28;20543;-81
2023/12/29 12:59:48;;;;;;;;;;;11.20;99.90;;;;;;5023142;28;20415;-80
2023/12/29 13:02:14;;;;;;;;;;;11.20;99.90;;;;;;5023338;28;19927;-80
2023/12/29 13:04:42;;;;;;;;;;;11.20;99.90;;;;;;5028623;28;19917;-80
2023/12/29 13:07:08;;;;;;;;;;;11.20;99.90;;;;;;5023330;28;19936;-81
2023/12/29 13:09:35;;;;;;;;;;;11.20;99.90;;;;;;5022951;28;20317;-80
2023/12/29 13:12:27;;;;;;;;;;;11.20;99.90;;;;;;5023460;28;20657;-80
2023/12/29 13:14:53;;;;;;;;;;;11.20;99.90;;;;;;5019184;28;19913;-81
2023/12/29 13:17:22;;;;;;;;;;;11.20;99.90;;;;;;5023374;28;19913;-81
2023/12/29 13:19:54;;;;;;;;;;;11.20;99.90;;;;;;5020686;28;19982;-81
2023/12/29 13:22:20;;;;;;;;;;;11.20;99.90;;;;;;5014684;28;19909;-81
2023/12/29 13:24:46;;;;;;;;;;;11.00;99.90;;;;;;5020899;28;20347;-81
2023/12/29 13:27:12;;;;;;;;;;;11.00;99.90;;;;;;5022630;28;19908;-80
2023/12/29 13:29:38;;;;;;;;;;;11.00;99.90;;;;;;5022194;28;19917;-81
2023/12/29 13:32:24;;;;;;;;;;;11.00;99.90;;;;;;5037268;28;19909;-80
2023/12/29 13:35:05;;;;;;;;;;;11.00;99.90;;;;;;5019324;28;19999;-83
2023/12/29 13:37:33;;;;;;;;;;;11.20;99.90;;;;;;5022772;28;19909;-82
2023/12/29 13:40:09;;;;;;;;;;;11.30;99.90;;;;;;5022559;28;19913;-80
2023/12/29 13:42:37;;;;;;;;;;;11.30;99.90;;;;;;5022562;28;19916;-81
2023/12/29 13:45:04;;;;;;;;;;;11.20;99.90;;;;;;5021151;28;19915;-81
2023/12/29 13:47:30;;;;;;;;;;;11.20;99.90;;;;;;5022100;28;20000;-82
2023/12/29 13:49:56;;;;;;;;;;;11.20;99.90;;;;;;5015535;28;19919;-81
2023/12/29 13:52:21;;;;;;;;;;;11.40;99.90;;;;;;5024970;28;20276;-81
2023/12/29 13:54:47;;;;;;;;;;;11.50;99.90;;;;;;5024583;28;20387;-80
2023/12/29 13:57:12;;;;;;;;;;;11.70;99.90;;;;;;5018495;28;19909;-80
2023/12/29 13:59:39;;;;;;;;;;;11.70;99.90;;;;;;5022098;28;19939;-81
2023/12/29 14:02:23;;;;;;;;;;;11.70;99.90;;;;;;5017803;28;20008;-81
2023/12/29 14:04:48;;;;;;;;;;;11.70;99.90;;;;;;5019402;28;19917;-81
2023/12/29 14:07:14;;;;;;;;;;;11.60;99.90;;;;;;5022052;28;19955;-80
2023/12/29 14:09:40;;;;;;;;;;;11.60;99.90;;;;;;5021150;28;20727;-80
2023/12/29 14:12:06;;;;;;;;;;;11.60;99.90;;;;;;5022050;28;19909;-81
2023/12/29 14:14:31;;;;;;;;;;;11.60;99.90;;;;;;5022050;28;20334;-81
2023/12/29 14:16:57;;;;;;;;;;;11.70;99.90;;;;;;5022169;28;19928;-81
2023/12/29 14:19:23;;;;;;;;;;;11.70;99.90;;;;;;5019496;28;19917;-80
2023/12/29 14:21:50;;;;;;;;;;;11.70;99.90;;;;;;5017722;28;20586;-81